Time;durP1;ratioP1;P1;durP2;ratioP2;P2;SDS_P1;SDS_P2;PMS_P1;PMS_P2;Temp;Humidity;BMP_temperature;BMP_pressure;BME280_temperature;BME280_humidity;BME280_pressure;Samples;Min_cycle;Max_cycle;Signal;HPM_P1;HPM_P2
2023/07/22 00:01:42;;;;;;;2.50;2.30;;;15.70;99.90;;;;;;476341;249;28848;-81
2023/07/22 00:03:43;;;;;;;2.83;2.03;;;15.70;99.90;;;;;;476365;249;28908;-78
2023/07/22 00:05:44;;;;;;;2.77;2.47;;;15.60;99.90;;;;;;476332;249;28848;-80
2023/07/22 00:07:47;;;;;;;3.00;2.50;;;15.50;99.90;;;;;;476310;249;28887;-79
2023/07/22 00:09:49;;;;;;;2.70;2.50;;;15.60;99.90;;;;;;476264;249;28800;-81
2023/07/22 00:11:48;;;;;;;2.43;2.23;;;15.60;99.90;;;;;;476277;249;29261;-81
2023/07/22 00:13:49;;;;;;;4.30;2.73;;;15.60;99.90;;;;;;476360;249;29355;-79
2023/07/22 00:15:51;;;;;;;2.60;2.40;;;15.60;99.90;;;;;;476352;249;29244;-81
2023/07/22 00:17:52;;;;;;;3.97;2.40;;;15.50;99.90;;;;;;476353;249;29311;-80
2023/07/22 00:19:53;;;;;;;2.80;2.60;;;15.60;99.90;;;;;;476419;249;28923;-81
2023/07/22 00:21:55;;;;;;;3.53;2.60;;;15.50;99.90;;;;;;476415;249;28765;-80
2023/07/22 00:23:56;;;;;;;2.57;2.37;;;15.30;99.90;;;;;;476362;249;28815;-77
2023/07/22 00:25:57;;;;;;;2.03;1.93;;;15.40;99.90;;;;;;476397;249;28781;-79
2023/07/22 00:27:58;;;;;;;2.27;2.07;;;15.40;99.90;;;;;;476403;249;28834;-77
2023/07/22 00:29:59;;;;;;;2.43;2.20;;;15.50;99.90;;;;;;476263;249;29183;-78
2023/07/22 00:32:01;;;;;;;9.83;2.60;;;15.50;99.90;;;;;;476410;249;28768;-80
2023/07/22 00:34:02;;;;;;;2.40;2.20;;;15.50;99.90;;;;;;476287;249;28830;-79
2023/07/22 00:36:03;;;;;;;3.90;2.47;;;15.50;99.90;;;;;;476378;249;28813;-82
2023/07/22 00:38:05;;;;;;;2.60;2.40;;;15.50;99.90;;;;;;476375;249;29276;-79
2023/07/22 00:40:11;;;;;;;2.27;2.07;;;15.60;99.90;;;;;;476351;249;29472;-79
2023/07/22 00:42:08;;;;;;;2.40;2.20;;;15.60;99.90;;;;;;476163;249;29227;-78
2023/07/22 00:44:08;;;;;;;2.40;2.20;;;15.50;99.90;;;;;;476322;249;28888;-79
2023/07/22 00:46:09;;;;;;;3.27;2.37;;;15.60;99.90;;;;;;476337;249;28773;-80
2023/07/22 00:48:11;;;;;;;2.53;2.33;;;15.50;99.90;;;;;;476329;249;28847;-80
2023/07/22 00:50:12;;;;;;;2.77;2.57;;;15.50;99.90;;;;;;476377;249;28818;-79
2023/07/22 00:52:13;;;;;;;5.70;2.47;;;15.50;99.90;;;;;;476408;249;28816;-79
2023/07/22 00:54:15;;;;;;;2.50;2.30;;;15.50;99.90;;;;;;476396;249;28817;-77
2023/07/22 00:56:16;;;;;;;2.80;2.50;;;15.60;99.90;;;;;;476414;249;28873;-79
2023/07/22 00:58:17;;;;;;;2.97;2.77;;;15.50;99.90;;;;;;476367;249;28824;-77
2023/07/22 01:00:18;;;;;;;2.40;2.20;;;15.50;99.90;;;;;;476440;249;28880;-79
2023/07/22 01:02:19;;;;;;;2.83;2.63;;;15.40;99.90;;;;;;476406;248;29244;-81
2023/07/22 01:04:22;;;;;;;2.50;2.30;;;15.40;99.90;;;;;;476352;249;29308;-79
2023/07/22 01:06:22;;;;;;;3.40;3.10;;;15.50;99.90;;;;;;476366;249;29341;-79
2023/07/22 01:08:23;;;;;;;4.93;3.00;;;15.50;99.90;;;;;;476342;249;28839;-79
2023/07/22 01:10:24;;;;;;;2.47;2.27;;;15.50;99.90;;;;;;476311;249;28814;-79
2023/07/22 01:12:26;;;;;;;2.50;2.30;;;15.50;99.90;;;;;;476394;249;28780;-79
2023/07/22 01:14:27;;;;;;;3.17;2.77;;;15.50;99.90;;;;;;476449;249;28847;-79
2023/07/22 01:16:28;;;;;;;4.40;2.93;;;15.50;99.90;;;;;;476431;249;28930;-80
2023/07/22 01:18:30;;;;;;;3.23;2.57;;;15.50;99.90;;;;;;476435;249;28909;-78
2023/07/22 01:20:31;;;;;;;2.30;2.13;;;15.50;99.90;;;;;;476454;249;29172;-79
2023/07/22 01:22:32;;;;;;;2.47;2.27;;;15.40;99.90;;;;;;476453;249;28779;-77
2023/07/22 01:24:33;;;;;;;3.13;2.83;;;15.30;99.90;;;;;;476405;247;28928;-79
2023/07/22 01:26:35;;;;;;;2.80;2.60;;;15.30;99.90;;;;;;476453;249;29276;-80
2023/07/22 01:28:36;;;;;;;5.40;2.90;;;15.30;99.90;;;;;;476444;249;29302;-79
2023/07/22 01:30:37;;;;;;;2.70;2.50;;;15.20;99.90;;;;;;476375;249;29399;-79
2023/07/22 01:32:38;;;;;;;2.63;2.43;;;15.20;99.90;;;;;;476363;249;29221;-79
2023/07/22 01:34:40;;;;;;;8.10;2.13;;;15.20;99.90;;;;;;476427;249;28876;-78
2023/07/22 01:36:42;;;;;;;2.80;2.60;;;15.20;99.90;;;;;;476432;249;28868;-78
2023/07/22 01:38:42;;;;;;;2.73;2.50;;;15.10;99.90;;;;;;476330;249;28888;-79
2023/07/22 01:40:43;;;;;;;2.50;2.30;;;15.10;99.90;;;;;;476463;249;28912;-78
2023/07/22 01:42:45;;;;;;;3.30;2.50;;;15.00;99.90;;;;;;476445;249;28881;-80
2023/07/22 01:44:46;;;;;;;2.73;2.53;;;15.00;99.90;;;;;;476378;249;28970;-77
2023/07/22 01:46:47;;;;;;;3.23;2.93;;;15.00;99.90;;;;;;476535;249;28782;-81
2023/07/22 01:48:48;;;;;;;2.73;2.53;;;15.00;99.90;;;;;;476339;249;28876;-82
2023/07/22 01:50:50;;;;;;;2.93;2.67;;;15.00;99.90;;;;;;476547;249;28825;-80
2023/07/22 01:52:51;;;;;;;6.60;2.80;;;15.00;99.90;;;;;;476546;249;29260;-80
2023/07/22 01:54:52;;;;;;;5.00;2.80;;;15.00;99.90;;;;;;476436;249;29288;-80
2023/07/22 01:56:53;;;;;;;3.57;3.00;;;14.90;99.90;;;;;;476659;247;30057;-81
2023/07/22 01:58:55;;;;;;;2.70;2.50;;;14.90;99.90;;;;;;476686;247;28869;-79
2023/07/22 02:00:56;;;;;;;2.90;2.70;;;14.70;99.90;;;;;;476610;249;28861;-80
2023/07/22 02:02:57;;;;;;;3.20;2.90;;;14.80;99.90;;;;;;476709;249;28903;-83
2023/07/22 02:04:58;;;;;;;2.93;2.60;;;14.90;99.90;;;;;;476909;249;28778;-81
2023/07/22 02:07:00;;;;;;;3.33;2.53;;;14.90;99.90;;;;;;476640;249;28782;-82
2023/07/22 02:09:08;;;;;;;3.10;2.90;;;15.00;99.90;;;;;;476872;249;28793;-79
2023/07/22 02:11:03;;;;;;;3.40;3.10;;;15.10;99.90;;;;;;476527;249;28820;-79
2023/07/22 02:13:04;;;;;;;3.03;2.83;;;15.10;99.90;;;;;;476861;249;28840;-82
2023/07/22 02:15:05;;;;;;;3.57;2.93;;;15.10;99.90;;;;;;476711;249;28789;-80
2023/07/22 02:17:08;;;;;;;5.67;2.87;;;15.00;99.90;;;;;;476887;249;30544;-79
2023/07/22 02:19:07;;;;;;;3.77;3.20;;;15.10;99.90;;;;;;476648;249;29391;-79
2023/07/22 02:21:08;;;;;;;4.10;3.13;;;15.10;99.90;;;;;;476615;249;29304;-79
2023/07/22 02:23:10;;;;;;;3.00;2.77;;;15.00;99.90;;;;;;476640;249;29256;-83
2023/07/22 02:25:11;;;;;;;3.47;3.17;;;15.00;99.90;;;;;;476614;249;28912;-81
2023/07/22 02:27:12;;;;;;;4.00;3.10;;;14.90;99.90;;;;;;476659;249;28863;-82
2023/07/22 02:29:13;;;;;;;5.80;3.50;;;15.00;99.90;;;;;;476765;249;28843;-78
2023/07/22 02:31:15;;;;;;;3.50;3.00;;;14.80;99.90;;;;;;476644;249;28793;-80
2023/07/22 02:33:16;;;;;;;3.13;2.90;;;14.80;99.90;;;;;;476566;249;28866;-82
2023/07/22 02:35:17;;;;;;;3.87;3.00;;;14.90;99.90;;;;;;476555;249;28820;-80
2023/07/22 02:37:18;;;;;;;3.50;3.20;;;14.80;99.90;;;;;;476567;249;28880;-81
2023/07/22 02:39:20;;;;;;;3.70;3.40;;;14.80;99.90;;;;;;476532;249;28921;-83
2023/07/22 02:41:21;;;;;;;3.17;2.97;;;14.80;99.90;;;;;;476741;249;28826;-79
2023/07/22 02:43:22;;;;;;;5.10;3.30;;;14.80;99.90;;;;;;476511;249;29328;-80
2023/07/22 02:45:23;;;;;;;5.00;3.70;;;14.80;99.90;;;;;;476529;249;29463;-81
2023/07/22 02:47:25;;;;;;;3.67;3.37;;;14.80;99.90;;;;;;476759;249;29438;-79
2023/07/22 02:49:26;;;;;;;4.00;3.20;;;14.80;99.90;;;;;;476754;249;28775;-78
2023/07/22 02:51:27;;;;;;;3.40;3.13;;;14.80;99.90;;;;;;476704;249;28913;-79
2023/07/22 02:53:28;;;;;;;6.50;3.30;;;14.70;99.90;;;;;;476695;249;28864;-80
2023/07/22 02:55:30;;;;;;;4.43;3.10;;;14.80;99.90;;;;;;476686;249;28849;-78
2023/07/22 02:57:31;;;;;;;4.10;3.70;;;14.80;99.90;;;;;;476725;249;29138;-78
2023/07/22 02:59:33;;;;;;;3.50;3.20;;;14.80;99.90;;;;;;476746;249;28780;-79
2023/07/22 03:01:33;;;;;;;4.27;3.87;;;14.70;99.90;;;;;;476324;249;28810;-79
2023/07/22 03:03:35;;;;;;;3.47;3.20;;;14.70;99.90;;;;;;476507;249;28781;-80
2023/07/22 03:05:36;;;;;;;4.93;4.10;;;14.70;99.90;;;;;;476471;247;28823;-80
2023/07/22 03:07:37;;;;;;;3.53;3.23;;;14.70;99.90;;;;;;476700;247;29267;-78
2023/07/22 03:09:38;;;;;;;7.30;3.53;;;14.60;99.90;;;;;;476558;249;29207;-80
2023/07/22 03:11:40;;;;;;;4.83;4.20;;;14.60;99.90;;;;;;476559;247;29383;-81
2023/07/22 03:13:41;;;;;;;4.57;3.20;;;14.50;99.90;;;;;;476511;249;28774;-81
2023/07/22 03:15:42;;;;;;;3.80;3.50;;;14.50;99.90;;;;;;476609;249;28904;-81
2023/07/22 03:17:43;;;;;;;4.40;3.60;;;14.50;99.90;;;;;;476595;249;28940;-81
2023/07/22 03:19:45;;;;;;;4.33;4.03;;;14.60;99.90;;;;;;476538;249;28782;-81
2023/07/22 03:21:46;;;;;;;4.73;3.30;;;14.60;99.90;;;;;;476785;249;28865;-84
2023/07/22 03:23:47;;;;;;;4.57;3.93;;;14.50;99.90;;;;;;476691;249;28897;-80
2023/07/22 03:25:48;;;;;;;4.20;3.80;;;14.60;99.90;;;;;;476702;247;28877;-79
2023/07/22 03:27:50;;;;;;;3.90;3.50;;;14.60;99.90;;;;;;476602;249;28837;-79
2023/07/22 03:29:51;;;;;;;3.80;3.40;;;14.60;99.90;;;;;;476685;249;28858;-82
2023/07/22 03:31:52;;;;;;;4.10;3.67;;;14.60;99.90;;;;;;476843;249;29328;-81
2023/07/22 03:33:53;;;;;;;4.60;4.17;;;14.60;99.90;;;;;;476653;249;29295;-81
2023/07/22 03:35:55;;;;;;;3.83;3.53;;;14.50;99.90;;;;;;476650;248;29237;-83
2023/07/22 03:37:56;;;;;;;4.40;4.00;;;14.60;99.90;;;;;;476600;249;29302;-80
2023/07/22 03:39:57;;;;;;;3.93;3.53;;;14.60;99.90;;;;;;476588;248;28856;-83
2023/07/22 03:41:58;;;;;;;4.47;3.50;;;14.50;99.90;;;;;;476602;249;28912;-82
2023/07/22 03:44:00;;;;;;;3.90;3.60;;;14.50;99.90;;;;;;476592;249;28777;-80
2023/07/22 03:46:01;;;;;;;3.70;3.40;;;14.50;99.90;;;;;;476655;249;28801;-82
2023/07/22 03:48:02;;;;;;;3.37;3.13;;;14.50;99.90;;;;;;476617;249;28857;-81
2023/07/22 03:50:03;;;;;;;3.93;3.63;;;14.50;99.90;;;;;;476632;249;28921;-81
2023/07/22 03:52:05;;;;;;;5.33;4.07;;;14.60;99.90;;;;;;476593;249;28925;-80
2023/07/22 03:54:06;;;;;;;3.53;3.20;;;14.60;99.90;;;;;;476624;249;28830;-83
2023/07/22 03:56:07;;;;;;;3.87;3.57;;;14.50;99.90;;;;;;476773;249;28822;-80
2023/07/22 03:58:08;;;;;;;3.40;3.20;;;14.60;99.90;;;;;;476810;249;29424;-81
2023/07/22 04:00:10;;;;;;;3.43;3.13;;;14.50;99.90;;;;;;476839;249;29379;-80
2023/07/22 04:02:11;;;;;;;4.13;3.83;;;14.60;99.90;;;;;;476849;249;29322;-78
2023/07/22 04:04:12;;;;;;;3.27;3.03;;;14.60;99.90;;;;;;476834;249;28774;-81
2023/07/22 04:06:13;;;;;;;4.10;3.70;;;14.50;99.90;;;;;;476738;249;28825;-80
2023/07/22 04:08:15;;;;;;;5.37;4.33;;;14.60;99.90;;;;;;476874;249;28818;-79
2023/07/22 04:10:16;;;;;;;4.17;3.83;;;14.50;99.90;;;;;;476643;249;28778;-82
2023/07/22 04:12:17;;;;;;;4.20;3.80;;;14.50;99.90;;;;;;476674;249;28774;-80
2023/07/22 04:14:18;;;;;;;4.67;3.93;;;14.50;99.90;;;;;;476684;249;28774;-82
2023/07/22 04:16:20;;;;;;;4.13;3.73;;;14.50;99.90;;;;;;476680;249;28874;-79
2023/07/22 04:18:21;;;;;;;3.87;3.37;;;14.50;99.90;;;;;;476850;249;28897;-79
2023/07/22 04:20:24;;;;;;;3.90;3.60;;;14.50;99.90;;;;;;476868;249;28937;-81
2023/07/22 04:22:23;;;;;;;4.03;3.57;;;14.50;99.90;;;;;;476613;249;28822;-81
2023/07/22 04:24:25;;;;;;;4.00;3.70;;;14.60;99.90;;;;;;476861;249;29249;-79
2023/07/22 04:26:26;;;;;;;4.20;3.80;;;14.50;99.90;;;;;;476736;249;29272;-82
2023/07/22 04:28:27;;;;;;;4.77;3.97;;;14.60;99.90;;;;;;476795;249;29363;-79
2023/07/22 04:30:28;;;;;;;4.70;3.67;;;14.60;99.90;;;;;;476776;249;28770;-81
2023/07/22 04:32:30;;;;;;;4.90;4.17;;;14.60;99.90;;;;;;476741;249;28930;-81
2023/07/22 04:34:31;;;;;;;3.77;3.43;;;14.60;99.90;;;;;;476688;249;28912;-85
2023/07/22 04:36:32;;;;;;;4.20;3.80;;;14.60;99.90;;;;;;476763;249;28778;-81
2023/07/22 04:38:33;;;;;;;6.17;3.93;;;14.60;99.90;;;;;;476933;249;28924;-78
2023/07/22 04:40:35;;;;;;;5.10;3.77;;;14.70;99.90;;;;;;476677;249;28797;-84
2023/07/22 04:42:36;;;;;;;3.87;3.53;;;14.70;99.90;;;;;;476674;249;28885;-81
2023/07/22 04:44:37;;;;;;;4.20;3.80;;;14.80;99.90;;;;;;476695;249;28790;-81
2023/07/22 04:46:38;;;;;;;4.10;3.70;;;14.80;99.90;;;;;;476705;249;28818;-80
2023/07/22 04:48:40;;;;;;;4.20;3.80;;;14.80;99.90;;;;;;476719;249;29309;-81
2023/07/22 04:50:44;;;;;;;4.60;4.20;;;14.80;99.90;;;;;;476724;249;30039;-82
2023/07/22 04:52:42;;;;;;;4.50;3.67;;;14.80;99.90;;;;;;476791;249;29244;-82
2023/07/22 04:54:47;;;;;;;4.07;3.73;;;14.80;99.90;;;;;;476879;249;29108;-80
2023/07/22 04:56:45;;;;;;;4.20;3.80;;;14.80;99.90;;;;;;476768;249;28837;-80
2023/07/22 04:58:46;;;;;;;6.33;3.87;;;14.80;99.90;;;;;;476910;247;28782;-80
2023/07/22 05:00:48;;;;;;;3.77;3.47;;;14.80;99.90;;;;;;476870;249;28867;-81
2023/07/22 05:02:49;;;;;;;5.80;3.93;;;14.80;99.90;;;;;;476700;249;28825;-79
2023/07/22 05:04:50;;;;;;;4.87;4.00;;;14.80;99.90;;;;;;476740;249;28791;-82
2023/07/22 05:06:51;;;;;;;4.93;3.83;;;14.80;99.90;;;;;;476751;249;28778;-83
2023/07/22 05:08:52;;;;;;;4.63;3.70;;;14.90;99.90;;;;;;476911;249;28782;-78
2023/07/22 05:10:53;;;;;;;3.90;3.60;;;14.90;99.90;;;;;;476931;249;28818;-82
2023/07/22 05:12:56;;;;;;;4.93;4.23;;;14.90;99.90;;;;;;476938;249;29317;-79
2023/07/22 05:14:56;;;;;;;3.50;3.20;;;14.90;99.90;;;;;;476779;249;29412;-80
2023/07/22 05:16:57;;;;;;;5.80;4.17;;;15.00;99.90;;;;;;476815;249;29320;-81
2023/07/22 05:18:58;;;;;;;4.50;4.10;;;15.00;99.90;;;;;;476822;249;29291;-82
2023/07/22 05:21:00;;;;;;;3.73;3.43;;;15.00;99.90;;;;;;476798;247;28786;-81
2023/07/22 05:23:01;;;;;;;4.13;3.73;;;15.00;99.90;;;;;;476858;249;28781;-81
2023/07/22 05:25:04;;;;;;;3.93;3.63;;;15.00;99.90;;;;;;476840;249;28849;-82
2023/07/22 05:27:03;;;;;;;4.17;3.77;;;15.00;99.90;;;;;;476769;249;28817;-81
2023/07/22 05:29:05;;;;;;;7.70;4.00;;;15.00;99.90;;;;;;476993;249;28909;-81
2023/07/22 05:31:06;;;;;;;4.27;3.87;;;15.00;99.90;;;;;;477040;249;28794;-80
2023/07/22 05:33:07;;;;;;;4.67;4.27;;;15.10;99.90;;;;;;477049;249;28779;-82
2023/07/22 05:35:09;;;;;;;4.37;3.97;;;15.10;99.90;;;;;;477099;249;28801;-80
2023/07/22 05:37:10;;;;;;;5.37;4.10;;;15.10;99.90;;;;;;476900;249;29268;-82
2023/07/22 05:39:11;;;;;;;4.13;3.73;;;15.10;99.90;;;;;;477082;249;29257;-79
2023/07/22 05:41:12;;;;;;;9.90;4.40;;;15.10;99.90;;;;;;477078;249;29229;-81
2023/07/22 05:43:14;;;;;;;4.20;3.80;;;15.10;99.90;;;;;;477082;249;29389;-82
2023/07/22 05:45:16;;;;;;;4.43;4.03;;;15.20;99.90;;;;;;477087;249;28870;-81
2023/07/22 05:47:16;;;;;;;4.10;3.73;;;15.20;99.90;;;;;;477036;249;28763;-81
2023/07/22 05:49:17;;;;;;;4.10;3.80;;;15.20;99.90;;;;;;477079;249;28857;-83
2023/07/22 05:51:19;;;;;;;4.10;3.50;;;15.20;99.90;;;;;;477068;249;28862;-81
2023/07/22 05:53:20;;;;;;;4.00;3.70;;;15.30;99.90;;;;;;477105;249;28854;-82
2023/07/22 05:55:21;;;;;;;4.20;3.80;;;15.40;99.90;;;;;;476980;249;28865;-82
2023/07/22 05:57:22;;;;;;;6.00;4.00;;;15.40;99.90;;;;;;476979;249;28786;-84
2023/07/22 05:59:24;;;;;;;5.90;4.43;;;15.50;99.90;;;;;;477042;247;28828;-83
2023/07/22 06:01:25;;;;;;;3.97;3.67;;;15.50;99.90;;;;;;477058;249;28889;-81
2023/07/22 06:03:26;;;;;;;3.90;3.60;;;15.40;99.90;;;;;;476976;249;29317;-81
2023/07/22 06:05:27;;;;;;;4.27;3.97;;;15.40;99.90;;;;;;476979;249;29331;-82
2023/07/22 06:07:29;;;;;;;4.03;3.73;;;15.30;99.90;;;;;;477034;249;29347;-81
2023/07/22 06:09:30;;;;;;;4.47;3.83;;;15.30;99.90;;;;;;476940;249;28770;-83
2023/07/22 06:11:31;;;;;;;4.13;3.83;;;15.30;99.90;;;;;;476961;249;28885;-82
2023/07/22 06:13:32;;;;;;;4.10;3.70;;;15.30;99.90;;;;;;476976;249;28778;-82
2023/07/22 06:15:34;;;;;;;4.20;3.80;;;15.40;99.90;;;;;;476897;249;28853;-82
2023/07/22 06:17:35;;;;;;;4.13;3.77;;;15.40;99.90;;;;;;477038;249;28774;-80
2023/07/22 06:19:36;;;;;;;4.80;4.00;;;15.50;99.90;;;;;;477008;249;28821;-80
2023/07/22 06:21:37;;;;;;;4.60;4.20;;;15.60;99.90;;;;;;477073;247;28849;-81
2023/07/22 06:23:39;;;;;;;3.90;3.27;;;15.70;99.90;;;;;;477092;247;28786;-81
2023/07/22 06:25:40;;;;;;;4.37;3.60;;;15.70;99.90;;;;;;477071;249;28852;-79
2023/07/22 06:27:41;;;;;;;5.70;3.83;;;15.80;99.90;;;;;;477064;249;28790;-81
2023/07/22 06:29:42;;;;;;;4.13;3.83;;;15.70;99.90;;;;;;477028;249;29242;-81
2023/07/22 06:31:44;;;;;;;3.70;3.40;;;15.70;99.90;;;;;;477094;249;29388;-80
2023/07/22 06:33:45;;;;;;;4.03;3.73;;;15.80;99.90;;;;;;477061;249;28866;-83
2023/07/22 06:35:46;;;;;;;5.60;3.87;;;15.90;99.90;;;;;;477004;249;28933;-82
2023/07/22 06:37:47;;;;;;;4.20;3.80;;;16.00;99.90;;;;;;477032;249;28798;-83
2023/07/22 06:39:49;;;;;;;5.27;3.60;;;16.10;99.90;;;;;;477027;249;28806;-82
2023/07/22 06:41:50;;;;;;;3.30;3.10;;;16.20;99.90;;;;;;477067;249;28784;-81
2023/07/22 06:43:51;;;;;;;4.43;3.57;;;16.30;99.90;;;;;;477107;249;28877;-83
2023/07/22 06:45:52;;;;;;;5.10;4.10;;;16.30;99.90;;;;;;477100;249;28817;-81
2023/07/22 06:47:54;;;;;;;4.27;3.90;;;16.40;99.90;;;;;;477118;249;28917;-84
2023/07/22 06:49:55;;;;;;;5.50;3.70;;;16.50;99.90;;;;;;477110;249;28873;-82
2023/07/22 06:51:56;;;;;;;4.33;3.83;;;16.70;99.90;;;;;;477197;249;28796;-81
2023/07/22 06:53:57;;;;;;;3.97;3.40;;;16.90;99.90;;;;;;477262;249;29269;-82
2023/07/22 06:55:59;;;;;;;4.27;3.87;;;16.90;99.90;;;;;;477194;249;29591;-83
2023/07/22 06:58:00;;;;;;;3.53;3.23;;;17.10;99.90;;;;;;477270;249;29383;-82
2023/07/22 07:00:01;;;;;;;3.60;3.00;;;17.20;99.90;;;;;;477233;249;28766;-82
2023/07/22 07:02:02;;;;;;;3.30;3.00;;;17.30;99.90;;;;;;477247;249;28868;-83
2023/07/22 07:04:04;;;;;;;4.70;3.90;;;17.30;99.90;;;;;;477209;249;28816;-85
2023/07/22 07:06:05;;;;;;;5.00;3.40;;;17.30;99.90;;;;;;477215;249;28913;-82
2023/07/22 07:08:06;;;;;;;3.50;3.13;;;17.30;99.90;;;;;;477203;249;28787;-83
2023/07/22 07:10:07;;;;;;;3.30;3.00;;;17.40;99.90;;;;;;477214;249;28838;-83
2023/07/22 07:12:09;;;;;;;5.27;3.07;;;17.40;99.90;;;;;;477293;249;28816;-82
2023/07/22 07:14:10;;;;;;;3.87;3.47;;;17.40;99.90;;;;;;477304;249;28801;-83
2023/07/22 07:16:11;;;;;;;5.27;3.50;;;17.40;99.90;;;;;;477375;249;28778;-83
2023/07/22 07:18:12;;;;;;;5.33;3.30;;;17.60;99.90;;;;;;477372;249;29192;-81
2023/07/22 07:20:14;;;;;;;3.40;3.20;;;17.60;99.90;;;;;;477331;249;29292;-82
2023/07/22 07:22:15;;;;;;;3.93;3.00;;;17.70;99.90;;;;;;477308;249;29503;-82
2023/07/22 07:24:16;;;;;;;5.93;3.30;;;18.00;99.90;;;;;;477343;249;29245;-82
2023/07/22 07:26:17;;;;;;;3.60;3.10;;;18.20;99.90;;;;;;477404;249;28865;-83
2023/07/22 07:28:19;;;;;;;3.60;2.80;;;18.30;99.90;;;;;;477361;249;28849;-80
2023/07/22 07:30:20;;;;;;;3.30;3.00;;;18.20;99.90;;;;;;477323;249;28881;-83
2023/07/22 07:32:23;;;;;;;4.20;3.20;;;18.30;99.90;;;;;;477361;249;28809;-81
2023/07/22 07:34:22;;;;;;;3.30;3.00;;;18.30;99.90;;;;;;477299;249;28863;-83
2023/07/22 07:36:24;;;;;;;5.50;2.97;;;18.30;99.90;;;;;;477371;249;28820;-83
2023/07/22 07:38:25;;;;;;;3.67;3.37;;;18.20;99.90;;;;;;477358;249;29015;-82
2023/07/22 07:40:26;;;;;;;3.10;2.90;;;18.20;99.90;;;;;;477330;249;28858;-81
2023/07/22 07:42:27;;;;;;;3.10;2.90;;;18.10;99.90;;;;;;477438;249;28816;-83
2023/07/22 07:44:29;;;;;;;4.50;3.40;;;18.00;99.90;;;;;;477321;247;29295;-83
2023/07/22 07:46:30;;;;;;;3.27;2.97;;;18.00;99.90;;;;;;477334;249;29233;-84
2023/07/22 07:48:31;;;;;;;3.50;2.63;;;18.10;99.90;;;;;;477302;248;29216;-80
2023/07/22 07:50:32;;;;;;;3.53;3.23;;;18.20;99.90;;;;;;477261;249;28887;-84
2023/07/22 07:52:34;;;;;;;3.30;3.00;;;18.20;99.90;;;;;;477279;249;28802;-82
2023/07/22 07:54:35;;;;;;;4.43;3.33;;;18.20;99.90;;;;;;477328;249;28803;-80
2023/07/22 07:56:36;;;;;;;4.00;3.53;;;18.40;99.90;;;;;;477264;249;28774;-84
2023/07/22 07:58:38;;;;;;;3.73;3.23;;;18.50;99.90;;;;;;477077;248;28821;-83
2023/07/22 08:00:39;;;;;;;4.40;3.37;;;18.70;99.90;;;;;;477064;249;28849;-83
2023/07/22 08:02:40;;;;;;;5.40;4.33;;;18.90;99.90;;;;;;477031;249;28841;-84
2023/07/22 08:04:41;;;;;;;3.30;3.00;;;18.90;99.90;;;;;;477075;249;28873;-82
2023/07/22 08:06:43;;;;;;;3.27;2.97;;;19.10;99.90;;;;;;476902;249;28868;-83
2023/07/22 08:08:44;;;;;;;2.90;2.70;;;19.30;99.90;;;;;;476814;249;29296;-83
2023/07/22 08:10:45;;;;;;;6.10;3.67;;;19.60;99.90;;;;;;476929;249;29247;-83
2023/07/22 08:12:46;;;;;;;5.43;3.10;;;19.80;99.90;;;;;;476902;249;29315;-85
2023/07/22 08:14:48;;;;;;;3.50;2.93;;;20.00;99.90;;;;;;476878;249;29222;-82
2023/07/22 08:16:49;;;;;;;3.10;2.80;;;20.10;99.90;;;;;;476910;249;28774;-82
2023/07/22 08:18:50;;;;;;;3.80;2.60;;;20.30;99.90;;;;;;476828;249;28900;-82
2023/07/22 08:20:52;;;;;;;6.47;3.03;;;20.30;99.90;;;;;;476688;248;28838;-83
2023/07/22 08:22:53;;;;;;;3.37;3.07;;;20.30;99.90;;;;;;476750;249;28808;-82
2023/07/22 08:24:54;;;;;;;11.00;3.30;;;20.30;99.90;;;;;;476745;249;28954;-80
2023/07/22 08:26:55;;;;;;;3.70;3.40;;;20.50;99.90;;;;;;476658;249;28797;-82
2023/07/22 08:28:56;;;;;;;3.27;2.80;;;20.60;99.90;;;;;;476668;249;28895;-82
2023/07/22 08:30:58;;;;;;;3.83;2.50;;;20.60;99.90;;;;;;476620;249;28790;-82
2023/07/22 08:32:59;;;;;;;3.17;2.87;;;20.60;99.90;;;;;;476657;247;29296;-81
2023/07/22 08:35:00;;;;;;;3.33;2.87;;;20.60;99.90;;;;;;476632;249;29289;-81
2023/07/22 08:37:01;;;;;;;4.37;2.60;;;20.50;99.90;;;;;;476578;249;29237;-81
2023/07/22 08:39:03;;;;;;;3.00;2.67;;;20.50;99.90;;;;;;476566;249;29230;-81
2023/07/22 08:41:04;;;;;;;4.30;2.93;;;20.50;99.90;;;;;;476598;249;28822;-82
2023/07/22 08:43:05;;;;;;;9.20;2.90;;;20.40;99.90;;;;;;476533;249;28813;-82
2023/07/22 08:45:06;;;;;;;3.80;3.03;;;20.60;99.90;;;;;;476555;249;28857;-80
2023/07/22 08:47:08;;;;;;;3.80;2.90;;;20.60;99.90;;;;;;476591;249;28786;-81
2023/07/22 08:49:09;;;;;;;3.10;2.63;;;20.50;99.90;;;;;;476468;249;28820;-80
2023/07/22 08:51:10;;;;;;;2.90;2.60;;;20.50;99.90;;;;;;476494;247;28804;-81
2023/07/22 08:53:11;;;;;;;5.00;2.93;;;20.60;99.90;;;;;;476525;249;28856;-81
2023/07/22 08:55:13;;;;;;;3.77;2.90;;;20.60;99.90;;;;;;476524;249;28822;-80
2023/07/22 08:57:14;;;;;;;2.90;2.50;;;20.50;99.90;;;;;;476526;249;28905;-82
2023/07/22 08:59:15;;;;;;;3.20;2.47;;;20.50;99.90;;;;;;476460;249;29316;-81
2023/07/22 09:01:16;;;;;;;6.00;3.00;;;20.30;99.90;;;;;;476496;249;29376;-82
2023/07/22 09:03:18;;;;;;;3.37;2.67;;;20.30;99.90;;;;;;476476;249;29248;-80
2023/07/22 09:05:19;;;;;;;3.87;2.90;;;20.20;99.90;;;;;;476445;249;28804;-80
2023/07/22 09:07:20;;;;;;;3.23;2.70;;;20.20;99.90;;;;;;476289;249;28875;-82
2023/07/22 09:09:22;;;;;;;3.03;2.77;;;20.10;99.90;;;;;;476477;249;28836;-80
2023/07/22 09:11:23;;;;;;;6.03;2.83;;;20.20;99.90;;;;;;476424;249;28793;-82
2023/07/22 09:13:24;;;;;;;7.50;2.87;;;20.20;99.90;;;;;;476512;249;28844;-81
2023/07/22 09:15:25;;;;;;;3.00;2.70;;;20.20;99.90;;;;;;476434;247;28902;-79
2023/07/22 09:17:26;;;;;;;4.33;2.70;;;20.30;99.90;;;;;;476451;249;28773;-80
2023/07/22 09:19:28;;;;;;;6.90;2.80;;;20.30;99.90;;;;;;476463;249;28838;-80
2023/07/22 09:21:29;;;;;;;2.60;2.40;;;20.40;99.90;;;;;;476454;249;29372;-79
2023/07/22 09:23:30;;;;;;;3.90;2.57;;;20.40;99.90;;;;;;476448;247;29236;-81
2023/07/22 09:25:31;;;;;;;4.93;2.50;;;20.60;99.90;;;;;;476428;249;29307;-80
2023/07/22 09:27:33;;;;;;;2.67;2.43;;;20.70;99.90;;;;;;476264;249;29415;-82
2023/07/22 09:29:34;;;;;;;2.90;2.60;;;20.70;99.90;;;;;;476416;249;28844;-81
2023/07/22 09:31:35;;;;;;;5.70;2.60;;;20.80;99.90;;;;;;476468;249;28809;-79
2023/07/22 09:33:37;;;;;;;3.10;2.30;;;21.00;99.90;;;;;;476476;249;28880;-81
2023/07/22 09:35:38;;;;;;;3.37;2.60;;;21.20;99.90;;;;;;475051;249;36312;-80
2023/07/22 09:37:39;;;;;;;4.53;2.60;;;21.30;99.90;;;;;;476472;249;27417;-80
2023/07/22 09:39:40;;;;;;;4.87;2.27;;;21.50;99.90;;;;;;476482;249;28781;-81
2023/07/22 09:41:41;;;;;;;4.40;2.93;;;21.50;99.90;;;;;;476443;249;29202;-79
2023/07/22 09:43:43;;;;;;;2.93;2.73;;;21.50;99.90;;;;;;476457;249;28794;-81
2023/07/22 09:45:44;;;;;;;2.90;2.60;;;21.70;99.90;;;;;;476378;248;28813;-80
2023/07/22 09:47:45;;;;;;;2.50;2.30;;;21.80;99.90;;;;;;476427;249;29297;-80
2023/07/22 09:49:46;;;;;;;4.00;2.80;;;21.80;99.90;;;;;;476427;247;29311;-80
2023/07/22 09:51:48;;;;;;;3.13;2.83;;;21.70;99.90;;;;;;476421;249;29471;-79
2023/07/22 09:53:49;;;;;;;3.87;2.83;;;21.70;99.90;;;;;;476421;249;28793;-81
2023/07/22 09:55:50;;;;;;;3.77;2.90;;;21.50;99.90;;;;;;476397;249;28821;-80
2023/07/22 09:57:51;;;;;;;4.50;2.93;;;21.40;99.90;;;;;;476368;249;28854;-81
2023/07/22 09:59:53;;;;;;;4.10;2.67;;;21.40;99.90;;;;;;476376;249;28817;-80
2023/07/22 10:01:54;;;;;;;5.53;3.00;;;21.50;99.90;;;;;;476428;249;28851;-79
2023/07/22 10:03:56;;;;;;;5.70;3.10;;;21.70;99.90;;;;;;476392;249;28784;-81
2023/07/22 10:05:56;;;;;;;4.70;2.60;;;21.90;99.90;;;;;;476374;249;28818;-81
2023/07/22 10:07:58;;;;;;;5.37;2.90;;;22.00;99.90;;;;;;476339;249;28856;-81
2023/07/22 10:09:59;;;;;;;3.93;2.63;;;22.20;99.90;;;;;;476321;249;28801;-81
2023/07/22 10:12:00;;;;;;;2.70;2.50;;;22.20;99.90;;;;;;476341;249;29270;-79
2023/07/22 10:14:01;;;;;;;2.70;2.50;;;22.20;99.90;;;;;;476366;249;29338;-81
2023/07/22 10:16:03;;;;;;;4.23;3.03;;;22.10;99.90;;;;;;476357;249;29367;-80
2023/07/22 10:18:05;;;;;;;3.10;2.70;;;22.20;99.90;;;;;;476361;249;28889;-81
2023/07/22 10:20:09;;;;;;;3.17;2.87;;;22.40;99.90;;;;;;476342;249;28800;-80
2023/07/22 10:22:10;;;;;;;3.50;3.20;;;22.40;99.90;;;;;;476342;249;28757;-80
2023/07/22 10:24:11;;;;;;;4.80;2.60;;;22.20;99.80;;;;;;476427;249;29295;-82
2023/07/22 10:26:14;;;;;;;7.90;3.07;;;22.00;99.90;;;;;;476359;249;29230;-81
2023/07/22 10:28:13;;;;;;;3.13;2.87;;;22.00;99.90;;;;;;476264;249;29327;-79
2023/07/22 10:30:14;;;;;;;4.37;2.90;;;21.90;99.60;;;;;;476300;249;29182;-79
2023/07/22 10:32:17;;;;;;;4.53;3.33;;;21.90;98.80;;;;;;476390;249;28779;-80